KRCR/RCR METAR and TAF weather

Enter ICAO airport designator
Station Type Date Time Source
KRCR METAR 2019/10/20 18:55 UTC NOAA

KRCR 201855Z AUTO 20004KT 10SM CLR 20/10 A2990 RMK AO2


Station Type Date Time Source
KRCR Decoded METAR 2019/10/20 18:55 UTC NOAA

Station name not available
Oct 20, 2019 - 02:55 PM EDT / 2019.10.20 1855 UTC
Wind: from the SSW (200 degrees) at 5 MPH (4 KT):0
Visibility: 10 mile(s):0
Sky conditions: clear
Temperature: 68 F (20 C)
Dew Point: 50 F (10 C)
Relative Humidity: 52%
Pressure (altimeter): 29.9 in. Hg (1012 hPa)
ob: KRCR 201855Z AUTO 20004KT 10SM CLR 20/10 A2990 RMK AO2
cycle: 19

Station Type Date Time Source
KRCR TAF UTC NOAA

Error!

Example: see airport list